sensor_id;sensor_type;location;lat;lon;timestamp;pressure;altitude;pressure_sealevel;temperature;humidity
56825;BME280;42705;50.326;18.772;2023-04-28T00:05:14;98911.58;;;6.21;51.26
56825;BME280;42705;50.326;18.772;2023-04-28T00:10:36;98914.88;;;6.23;51.74
56825;BME280;42705;50.326;18.772;2023-04-28T00:15:57;98911.52;;;6.24;51.58
56825;BME280;42705;50.326;18.772;2023-04-28T00:21:20;98908.91;;;6.25;51.62
56825;BME280;42705;50.326;18.772;2023-04-28T00:26:42;98903.73;;;6.24;51.52
56825;BME280;42705;50.326;18.772;2023-04-28T00:32:04;98903.18;;;6.22;51.60
56825;BME280;42705;50.326;18.772;2023-04-28T00:37:25;98907.45;;;6.18;51.68
56825;BME280;42705;50.326;18.772;2023-04-28T00:42:47;98905.44;;;6.14;51.47
56825;BME280;42705;50.326;18.772;2023-04-28T00:48:09;98903.54;;;6.11;51.79
56825;BME280;42705;50.326;18.772;2023-04-28T00:53:31;98901.36;;;6.10;51.84
56825;BME280;42705;50.326;18.772;2023-04-28T00:58:53;98902.61;;;6.10;51.78
56825;BME280;42705;50.326;18.772;2023-04-28T01:04:16;98901.13;;;6.05;51.87
56825;BME280;42705;50.326;18.772;2023-04-28T01:09:40;98901.04;;;5.99;51.67
56825;BME280;42705;50.326;18.772;2023-04-28T01:15:03;98905.20;;;5.93;51.73
56825;BME280;42705;50.326;18.772;2023-04-28T01:20:25;98909.15;;;5.91;51.50
56825;BME280;42705;50.326;18.772;2023-04-28T01:25:47;98906.27;;;5.90;51.39
56825;BME280;42705;50.326;18.772;2023-04-28T01:31:09;98902.64;;;5.90;51.55
56825;BME280;42705;50.326;18.772;2023-04-28T01:36:30;98898.24;;;5.91;51.42
56825;BME280;42705;50.326;18.772;2023-04-28T01:41:53;98898.90;;;5.91;51.34
56825;BME280;42705;50.326;18.772;2023-04-28T01:47:15;98902.33;;;5.94;51.58
56825;BME280;42705;50.326;18.772;2023-04-28T01:52:37;98903.90;;;5.97;51.66
56825;BME280;42705;50.326;18.772;2023-04-28T01:57:59;98903.10;;;5.96;51.58
56825;BME280;42705;50.326;18.772;2023-04-28T02:03:22;98901.89;;;5.93;51.45
56825;BME280;42705;50.326;18.772;2023-04-28T02:08:44;98895.71;;;5.90;51.66
56825;BME280;42705;50.326;18.772;2023-04-28T02:14:07;98893.69;;;5.86;51.53
56825;BME280;42705;50.326;18.772;2023-04-28T02:19:29;98896.50;;;5.80;51.75
56825;BME280;42705;50.326;18.772;2023-04-28T02:24:51;98895.08;;;5.75;51.90
56825;BME280;42705;50.326;18.772;2023-04-28T02:30:12;98887.50;;;5.69;51.96
56825;BME280;42705;50.326;18.772;2023-04-28T02:35:34;98878.33;;;5.60;51.94
56825;BME280;42705;50.326;18.772;2023-04-28T02:40:57;98873.64;;;5.52;52.32
56825;BME280;42705;50.326;18.772;2023-04-28T02:46:19;98875.39;;;5.44;52.39
56825;BME280;42705;50.326;18.772;2023-04-28T02:51:41;98876.19;;;5.36;52.67
56825;BME280;42705;50.326;18.772;2023-04-28T02:57:03;98879.17;;;5.30;52.84
56825;BME280;42705;50.326;18.772;2023-04-28T03:02:25;98875.95;;;5.23;53.26
56825;BME280;42705;50.326;18.772;2023-04-28T03:07:47;98868.81;;;5.15;53.42
56825;BME280;42705;50.326;18.772;2023-04-28T03:13:09;98873.66;;;5.07;53.38
56825;BME280;42705;50.326;18.772;2023-04-28T03:18:31;98872.52;;;5.00;53.69
56825;BME280;42705;50.326;18.772;2023-04-28T03:23:53;98879.02;;;4.93;53.67
56825;BME280;42705;50.326;18.772;2023-04-28T03:29:15;98876.97;;;4.87;53.80
56825;BME280;42705;50.326;18.772;2023-04-28T03:34:38;98875.44;;;4.80;53.87
56825;BME280;42705;50.326;18.772;2023-04-28T03:40:00;98874.27;;;4.77;53.62
56825;BME280;42705;50.326;18.772;2023-04-28T03:45:23;98873.54;;;4.75;53.95
56825;BME280;42705;50.326;18.772;2023-04-28T03:50:45;98871.06;;;4.73;53.94
56825;BME280;42705;50.326;18.772;2023-04-28T03:56:07;98869.48;;;4.70;54.32
56825;BME280;42705;50.326;18.772;2023-04-28T04:01:29;98868.41;;;4.71;54.05
56825;BME280;42705;50.326;18.772;2023-04-28T04:06:51;98874.98;;;4.74;54.50
56825;BME280;42705;50.326;18.772;2023-04-28T04:12:14;98878.80;;;4.76;54.55
56825;BME280;42705;50.326;18.772;2023-04-28T04:17:35;98884.49;;;4.80;54.80
56825;BME280;42705;50.326;18.772;2023-04-28T04:22:57;98890.39;;;4.82;54.71
56825;BME280;42705;50.326;18.772;2023-04-28T04:28:19;98894.58;;;4.87;54.62
56825;BME280;42705;50.326;18.772;2023-04-28T04:33:40;98895.77;;;4.97;54.70
56825;BME280;42705;50.326;18.772;2023-04-28T04:39:02;98894.85;;;5.08;54.60
56825;BME280;42705;50.326;18.772;2023-04-28T04:44:24;98889.59;;;5.21;54.69
56825;BME280;42705;50.326;18.772;2023-04-28T04:49:47;98893.00;;;5.33;54.61
56825;BME280;42705;50.326;18.772;2023-04-28T04:55:10;98892.48;;;5.50;54.35
56825;BME280;42705;50.326;18.772;2023-04-28T05:00:33;98893.88;;;5.69;54.41
56825;BME280;42705;50.326;18.772;2023-04-28T05:05:55;98896.13;;;5.89;54.51
56825;BME280;42705;50.326;18.772;2023-04-28T05:11:39;98892.65;;;6.08;54.20
56825;BME280;42705;50.326;18.772;2023-04-28T05:17:01;98891.94;;;6.24;53.85
56825;BME280;42705;50.326;18.772;2023-04-28T05:22:30;98894.27;;;6.42;53.71
56825;BME280;42705;50.326;18.772;2023-04-28T05:27:53;98895.91;;;6.56;53.42
56825;BME280;42705;50.326;18.772;2023-04-28T05:33:15;98892.64;;;6.71;53.23
56825;BME280;42705;50.326;18.772;2023-04-28T05:38:38;98890.11;;;6.85;52.97
56825;BME280;42705;50.326;18.772;2023-04-28T05:44:00;98888.86;;;7.01;52.75
56825;BME280;42705;50.326;18.772;2023-04-28T05:49:22;98889.02;;;7.19;52.51
56825;BME280;42705;50.326;18.772;2023-04-28T05:54:44;98887.98;;;7.37;52.30
56825;BME280;42705;50.326;18.772;2023-04-28T06:00:06;98889.88;;;7.51;51.74
56825;BME280;42705;50.326;18.772;2023-04-28T06:05:34;98890.02;;;7.67;51.53
56825;BME280;42705;50.326;18.772;2023-04-28T06:10:56;98887.15;;;7.82;51.12
56825;BME280;42705;50.326;18.772;2023-04-28T06:16:18;98890.74;;;7.93;50.93
56825;BME280;42705;50.326;18.772;2023-04-28T06:21:40;98887.63;;;8.02;50.72
56825;BME280;42705;50.326;18.772;2023-04-28T06:27:02;98882.14;;;8.15;50.16
56825;BME280;42705;50.326;18.772;2023-04-28T06:32:24;98877.48;;;8.32;49.94
56825;BME280;42705;50.326;18.772;2023-04-28T06:37:46;98877.67;;;8.48;49.78
56825;BME280;42705;50.326;18.772;2023-04-28T06:43:09;98876.84;;;8.55;49.01
56825;BME280;42705;50.326;18.772;2023-04-28T06:48:46;98880.02;;;8.47;48.44
56825;BME280;42705;50.326;18.772;2023-04-28T06:54:11;98874.36;;;8.50;48.16
56825;BME280;42705;50.326;18.772;2023-04-28T06:59:33;98867.05;;;8.62;48.24
56825;BME280;42705;50.326;18.772;2023-04-28T07:04:55;98859.53;;;8.76;48.14
56825;BME280;42705;50.326;18.772;2023-04-28T07:10:17;98852.36;;;8.97;48.25
56825;BME280;42705;50.326;18.772;2023-04-28T07:15:38;98849.64;;;9.18;47.87
56825;BME280;42705;50.326;18.772;2023-04-28T07:21:00;98844.23;;;9.36;47.40
56825;BME280;42705;50.326;18.772;2023-04-28T07:26:22;98839.27;;;9.57;47.09
56825;BME280;42705;50.326;18.772;2023-04-28T07:31:44;98837.58;;;9.78;46.84
56825;BME280;42705;50.326;18.772;2023-04-28T07:37:06;98833.20;;;10.00;46.73
56825;BME280;42705;50.326;18.772;2023-04-28T07:42:28;98828.31;;;10.19;46.21
56825;BME280;42705;50.326;18.772;2023-04-28T07:47:50;98827.52;;;10.42;45.91
56825;BME280;42705;50.326;18.772;2023-04-28T07:53:12;98823.88;;;10.64;45.15
56825;BME280;42705;50.326;18.772;2023-04-28T07:58:34;98824.91;;;10.79;44.16
56825;BME280;42705;50.326;18.772;2023-04-28T08:03:56;98819.91;;;10.94;43.99
56825;BME280;42705;50.326;18.772;2023-04-28T08:09:18;98821.89;;;11.02;42.94
56825;BME280;42705;50.326;18.772;2023-04-28T08:14:40;98812.02;;;11.03;41.93
56825;BME280;42705;50.326;18.772;2023-04-28T08:20:02;98810.39;;;11.06;40.54
56825;BME280;42705;50.326;18.772;2023-04-28T08:25:24;98809.25;;;11.13;40.34
56825;BME280;42705;50.326;18.772;2023-04-28T08:30:46;98805.09;;;11.19;39.01
56825;BME280;42705;50.326;18.772;2023-04-28T08:36:08;98801.75;;;11.21;38.51
56825;BME280;42705;50.326;18.772;2023-04-28T08:41:32;98793.96;;;11.26;38.05
56825;BME280;42705;50.326;18.772;2023-04-28T08:46:55;98786.01;;;11.38;38.12
56825;BME280;42705;50.326;18.772;2023-04-28T08:52:18;98787.63;;;11.52;38.18
56825;BME280;42705;50.326;18.772;2023-04-28T08:57:43;98785.52;;;11.52;37.31
56825;BME280;42705;50.326;18.772;2023-04-28T09:03:06;98776.25;;;11.62;37.83
56825;BME280;42705;50.326;18.772;2023-04-28T09:08:29;98780.05;;;11.76;37.31
56825;BME280;42705;50.326;18.772;2023-04-28T09:13:51;98771.98;;;11.78;37.42
56825;BME280;42705;50.326;18.772;2023-04-28T09:19:13;98767.19;;;11.90;37.21
56825;BME280;42705;50.326;18.772;2023-04-28T09:24:36;98762.42;;;12.05;37.59
56825;BME280;42705;50.326;18.772;2023-04-28T09:30:01;98754.13;;;12.17;37.28
56825;BME280;42705;50.326;18.772;2023-04-28T09:35:40;98745.54;;;12.38;37.88
56825;BME280;42705;50.326;18.772;2023-04-28T09:41:02;98736.52;;;12.58;37.98
56825;BME280;42705;50.326;18.772;2023-04-28T09:46:27;98735.31;;;12.76;37.99
56825;BME280;42705;50.326;18.772;2023-04-28T09:51:49;98732.97;;;12.84;36.76
56825;BME280;42705;50.326;18.772;2023-04-28T09:57:11;98727.71;;;12.78;35.52
56825;BME280;42705;50.326;18.772;2023-04-28T10:02:34;98711.50;;;12.68;35.50
56825;BME280;42705;50.326;18.772;2023-04-28T10:07:56;98710.77;;;12.74;35.47
56825;BME280;42705;50.326;18.772;2023-04-28T10:13:21;98708.35;;;12.90;35.43
56825;BME280;42705;50.326;18.772;2023-04-28T10:18:43;98692.42;;;13.08;35.46
56825;BME280;42705;50.326;18.772;2023-04-28T10:24:08;98687.15;;;13.30;35.36
56825;BME280;42705;50.326;18.772;2023-04-28T10:29:31;98676.69;;;13.51;35.24
56825;BME280;42705;50.326;18.772;2023-04-28T10:40:37;98668.30;;;13.72;34.20
56825;BME280;42705;50.326;18.772;2023-04-28T10:46:00;98657.98;;;13.79;34.22
56825;BME280;42705;50.326;18.772;2023-04-28T10:51:23;98655.13;;;14.00;34.12
56825;BME280;42705;50.326;18.772;2023-04-28T10:57:13;98650.58;;;14.22;33.99
56825;BME280;42705;50.326;18.772;2023-04-28T11:02:37;98641.00;;;14.42;33.34
56825;BME280;42705;50.326;18.772;2023-04-28T11:13:40;98615.15;;;14.75;33.78
56825;BME280;42705;50.326;18.772;2023-04-28T11:19:02;98597.91;;;15.00;33.69
56825;BME280;42705;50.326;18.772;2023-04-28T11:24:25;98602.05;;;15.22;33.85
56825;BME280;42705;50.326;18.772;2023-04-28T11:29:49;98597.00;;;15.49;33.87
56825;BME280;42705;50.326;18.772;2023-04-28T11:35:11;98596.15;;;15.68;32.78
56825;BME280;42705;50.326;18.772;2023-04-28T11:40:33;98596.42;;;15.90;31.69
56825;BME280;42705;50.326;18.772;2023-04-28T11:45:55;98589.70;;;16.10;32.08
56825;BME280;42705;50.326;18.772;2023-04-28T11:51:31;98582.69;;;16.35;32.57
56825;BME280;42705;50.326;18.772;2023-04-28T11:56:54;98580.97;;;16.70;32.27
56825;BME280;42705;50.326;18.772;2023-04-28T12:02:24;98578.91;;;16.90;31.13
56825;BME280;42705;50.326;18.772;2023-04-28T12:07:46;98576.30;;;17.05;30.82
56825;BME280;42705;50.326;18.772;2023-04-28T12:13:15;98571.84;;;17.09;30.62
56825;BME280;42705;50.326;18.772;2023-04-28T12:18:37;98562.09;;;17.06;30.61
56825;BME280;42705;50.326;18.772;2023-04-28T12:23:59;98552.62;;;17.51;31.42
56825;BME280;42705;50.326;18.772;2023-04-28T12:29:34;98547.90;;;17.86;30.73
56825;BME280;42705;50.326;18.772;2023-04-28T12:34:57;98542.33;;;17.95;30.32
56825;BME280;42705;50.326;18.772;2023-04-28T12:40:20;98525.41;;;18.25;30.40
56825;BME280;42705;50.326;18.772;2023-04-28T12:45:41;98513.42;;;18.51;29.50
56825;BME280;42705;50.326;18.772;2023-04-28T12:51:03;98501.77;;;18.89;29.33
56825;BME280;42705;50.326;18.772;2023-04-28T12:56:25;98490.45;;;19.21;29.20
56825;BME280;42705;50.326;18.772;2023-04-28T13:01:48;98492.86;;;19.87;29.43
56825;BME280;42705;50.326;18.772;2023-04-28T13:07:11;98487.88;;;20.40;28.05
56825;BME280;42705;50.326;18.772;2023-04-28T13:12:33;98481.49;;;20.52;27.18
56825;BME280;42705;50.326;18.772;2023-04-28T13:17:55;98480.76;;;22.69;25.01
56825;BME280;42705;50.326;18.772;2023-04-28T13:23:17;98474.30;;;22.97;25.49
56825;BME280;42705;50.326;18.772;2023-04-28T13:28:39;98455.23;;;25.08;24.40
56825;BME280;42705;50.326;18.772;2023-04-28T13:34:02;98445.21;;;29.47;21.87
56825;BME280;42705;50.326;18.772;2023-04-28T13:39:25;98435.16;;;32.59;19.73
56825;BME280;42705;50.326;18.772;2023-04-28T13:44:47;98440.82;;;33.95;16.97
56825;BME280;42705;50.326;18.772;2023-04-28T13:50:09;98427.20;;;34.43;16.66
56825;BME280;42705;50.326;18.772;2023-04-28T13:55:31;98425.92;;;33.30;17.58
56825;BME280;42705;50.326;18.772;2023-04-28T14:00:53;98428.30;;;30.74;17.88
56825;BME280;42705;50.326;18.772;2023-04-28T14:06:15;98423.85;;;28.11;19.04
56825;BME280;42705;50.326;18.772;2023-04-28T14:11:38;98415.79;;;27.51;20.01
56825;BME280;42705;50.326;18.772;2023-04-28T14:16:59;98407.36;;;27.93;19.90
56825;BME280;42705;50.326;18.772;2023-04-28T14:22:23;98403.74;;;26.90;19.04
56825;BME280;42705;50.326;18.772;2023-04-28T14:27:48;98403.08;;;25.51;19.56
56825;BME280;42705;50.326;18.772;2023-04-28T14:33:10;98402.79;;;24.56;19.80
56825;BME280;42705;50.326;18.772;2023-04-28T14:38:32;98403.05;;;23.11;20.86
56825;BME280;42705;50.326;18.772;2023-04-28T14:43:54;98399.96;;;22.22;21.67
56825;BME280;42705;50.326;18.772;2023-04-28T14:49:17;98402.00;;;21.33;22.18
56825;BME280;42705;50.326;18.772;2023-04-28T14:54:39;98391.02;;;20.96;23.14
56825;BME280;42705;50.326;18.772;2023-04-28T15:00:01;98389.16;;;21.24;23.94
56825;BME280;42705;50.326;18.772;2023-04-28T15:05:24;98389.01;;;22.16;22.86
56825;BME280;42705;50.326;18.772;2023-04-28T15:10:46;98381.31;;;22.18;23.16
56825;BME280;42705;50.326;18.772;2023-04-28T15:16:08;98376.45;;;21.72;23.66
56825;BME280;42705;50.326;18.772;2023-04-28T15:21:30;98377.30;;;21.20;24.06
56825;BME280;42705;50.326;18.772;2023-04-28T15:26:52;98379.13;;;20.80;24.66
56825;BME280;42705;50.326;18.772;2023-04-28T15:32:14;98369.90;;;20.61;25.15
56825;BME280;42705;50.326;18.772;2023-04-28T15:42:58;98353.92;;;20.46;25.18
56825;BME280;42705;50.326;18.772;2023-04-28T15:48:20;98346.22;;;20.22;25.21
56825;BME280;42705;50.326;18.772;2023-04-28T15:53:44;98342.23;;;20.01;25.74
56825;BME280;42705;50.326;18.772;2023-04-28T15:59:06;98341.19;;;19.65;25.81
56825;BME280;42705;50.326;18.772;2023-04-28T16:04:31;98338.91;;;19.32;25.97
56825;BME280;42705;50.326;18.772;2023-04-28T16:09:53;98340.19;;;18.76;25.80
56825;BME280;42705;50.326;18.772;2023-04-28T16:15:15;98340.55;;;18.14;25.95
56825;BME280;42705;50.326;18.772;2023-04-28T16:20:38;98337.67;;;17.76;26.22
56825;BME280;42705;50.326;18.772;2023-04-28T16:26:00;98336.54;;;17.73;26.30
56825;BME280;42705;50.326;18.772;2023-04-28T16:31:22;98328.68;;;17.69;26.80
56825;BME280;42705;50.326;18.772;2023-04-28T16:36:44;98324.39;;;17.73;27.41
56825;BME280;42705;50.326;18.772;2023-04-28T16:42:06;98323.67;;;17.65;27.41
56825;BME280;42705;50.326;18.772;2023-04-28T16:47:29;98325.17;;;17.32;27.55
56825;BME280;42705;50.326;18.772;2023-04-28T16:52:51;98319.88;;;17.01;27.91
56825;BME280;42705;50.326;18.772;2023-04-28T16:58:13;98321.55;;;16.74;28.50
56825;BME280;42705;50.326;18.772;2023-04-28T17:03:37;98323.03;;;16.58;29.53
56825;BME280;42705;50.326;18.772;2023-04-28T17:09:03;98320.38;;;16.37;30.24
56825;BME280;42705;50.326;18.772;2023-04-28T17:14:25;98322.73;;;16.10;31.05
56825;BME280;42705;50.326;18.772;2023-04-28T17:19:47;98324.66;;;15.80;31.90
56825;BME280;42705;50.326;18.772;2023-04-28T17:25:10;98326.09;;;15.51;32.61
56825;BME280;42705;50.326;18.772;2023-04-28T17:30:35;98328.30;;;15.27;33.02
56825;BME280;42705;50.326;18.772;2023-04-28T17:35:58;98327.38;;;15.05;33.66
56825;BME280;42705;50.326;18.772;2023-04-28T17:41:22;98323.23;;;14.85;34.19
56825;BME280;42705;50.326;18.772;2023-04-28T17:46:44;98329.73;;;14.67;34.53
56825;BME280;42705;50.326;18.772;2023-04-28T17:52:06;98337.96;;;14.53;34.85
56825;BME280;42705;50.326;18.772;2023-04-28T17:57:28;98339.55;;;14.38;35.13
56825;BME280;42705;50.326;18.772;2023-04-28T18:02:50;98339.86;;;14.22;35.34
56825;BME280;42705;50.326;18.772;2023-04-28T18:08:13;98338.39;;;14.10;35.73
56825;BME280;42705;50.326;18.772;2023-04-28T18:13:35;98337.23;;;14.01;35.97
56825;BME280;42705;50.326;18.772;2023-04-28T18:18:57;98339.31;;;13.90;36.04
56825;BME280;42705;50.326;18.772;2023-04-28T18:24:22;98342.43;;;13.78;36.43
56825;BME280;42705;50.326;18.772;2023-04-28T18:29:45;98345.66;;;13.68;36.51
56825;BME280;42705;50.326;18.772;2023-04-28T18:35:08;98345.98;;;13.58;36.75
56825;BME280;42705;50.326;18.772;2023-04-28T18:40:35;98352.45;;;13.46;37.02
56825;BME280;42705;50.326;18.772;2023-04-28T18:45:59;98356.77;;;13.37;37.10
56825;BME280;42705;50.326;18.772;2023-04-28T18:51:25;98359.33;;;13.29;37.21
56825;BME280;42705;50.326;18.772;2023-04-28T18:56:47;98363.03;;;13.21;37.30
56825;BME280;42705;50.326;18.772;2023-04-28T19:02:11;98366.36;;;13.13;37.46
56825;BME280;42705;50.326;18.772;2023-04-28T19:07:33;98368.17;;;13.06;37.74
56825;BME280;42705;50.326;18.772;2023-04-28T19:12:56;98366.11;;;13.01;37.85
56825;BME280;42705;50.326;18.772;2023-04-28T19:18:19;98366.11;;;13.00;37.98
56825;BME280;42705;50.326;18.772;2023-04-28T19:23:41;98365.48;;;12.97;38.20
56825;BME280;42705;50.326;18.772;2023-04-28T19:29:06;98361.96;;;12.96;38.25
56825;BME280;42705;50.326;18.772;2023-04-28T19:34:29;98351.99;;;12.96;38.37
56825;BME280;42705;50.326;18.772;2023-04-28T19:39:51;98354.20;;;12.96;38.59
56825;BME280;42705;50.326;18.772;2023-04-28T19:45:13;98350.36;;;12.98;38.65
56825;BME280;42705;50.326;18.772;2023-04-28T19:50:41;98348.35;;;12.97;38.50
56825;BME280;42705;50.326;18.772;2023-04-28T19:56:03;98344.59;;;12.91;38.62
56825;BME280;42705;50.326;18.772;2023-04-28T20:01:26;98337.40;;;12.82;38.65
56825;BME280;42705;50.326;18.772;2023-04-28T20:06:48;98337.75;;;12.75;39.08
56825;BME280;42705;50.326;18.772;2023-04-28T20:12:11;98333.84;;;12.67;39.05
56825;BME280;42705;50.326;18.772;2023-04-28T20:17:33;98329.90;;;12.65;39.31
56825;BME280;42705;50.326;18.772;2023-04-28T20:22:57;98333.17;;;12.63;39.60
56825;BME280;42705;50.326;18.772;2023-04-28T20:28:19;98331.85;;;12.61;39.92
56825;BME280;42705;50.326;18.772;2023-04-28T20:33:42;98336.91;;;12.56;39.84
56825;BME280;42705;50.326;18.772;2023-04-28T20:39:04;98337.05;;;12.49;40.34
56825;BME280;42705;50.326;18.772;2023-04-28T20:44:28;98336.63;;;12.41;40.73
56825;BME280;42705;50.326;18.772;2023-04-28T20:49:50;98336.23;;;12.35;40.72
56825;BME280;42705;50.326;18.772;2023-04-28T20:55:13;98333.65;;;12.27;40.89
56825;BME280;42705;50.326;18.772;2023-04-28T21:00:35;98330.19;;;12.19;40.85
56825;BME280;42705;50.326;18.772;2023-04-28T21:06:00;98327.49;;;12.13;41.28
56825;BME280;42705;50.326;18.772;2023-04-28T21:11:24;98324.70;;;12.09;41.56
56825;BME280;42705;50.326;18.772;2023-04-28T21:16:46;98329.65;;;12.06;41.37
56825;BME280;42705;50.326;18.772;2023-04-28T21:22:08;98332.37;;;12.01;41.60
56825;BME280;42705;50.326;18.772;2023-04-28T21:27:30;98330.95;;;11.97;41.07
56825;BME280;42705;50.326;18.772;2023-04-28T21:32:52;98326.43;;;11.95;41.40
56825;BME280;42705;50.326;18.772;2023-04-28T21:38:14;98324.30;;;11.95;40.87
56825;BME280;42705;50.326;18.772;2023-04-28T21:43:36;98325.50;;;11.96;41.31
56825;BME280;42705;50.326;18.772;2023-04-28T21:48:58;98320.20;;;11.98;41.34
56825;BME280;42705;50.326;18.772;2023-04-28T21:54:19;98319.83;;;12.00;40.99
56825;BME280;42705;50.326;18.772;2023-04-28T21:59:41;98320.11;;;12.03;41.04
56825;BME280;42705;50.326;18.772;2023-04-28T22:05:03;98316.00;;;12.05;40.92
56825;BME280;42705;50.326;18.772;2023-04-28T22:10:25;98313.16;;;12.07;41.33
56825;BME280;42705;50.326;18.772;2023-04-28T22:15:47;98307.48;;;12.10;41.36
56825;BME280;42705;50.326;18.772;2023-04-28T22:21:10;98303.09;;;12.12;41.09
56825;BME280;42705;50.326;18.772;2023-04-28T22:26:33;98298.79;;;12.08;41.04
56825;BME280;42705;50.326;18.772;2023-04-28T22:31:55;98297.33;;;12.07;41.07
56825;BME280;42705;50.326;18.772;2023-04-28T22:37:19;98291.94;;;12.05;41.01
56825;BME280;42705;50.326;18.772;2023-04-28T22:42:40;98289.94;;;12.05;41.56
56825;BME280;42705;50.326;18.772;2023-04-28T22:48:02;98282.44;;;12.07;41.70
56825;BME280;42705;50.326;18.772;2023-04-28T22:53:24;98282.45;;;12.08;41.95
56825;BME280;42705;50.326;18.772;2023-04-28T22:58:46;98276.48;;;12.08;42.23
56825;BME280;42705;50.326;18.772;2023-04-28T23:04:08;98273.55;;;12.08;42.27
56825;BME280;42705;50.326;18.772;2023-04-28T23:09:30;98271.92;;;12.05;42.40
56825;BME280;42705;50.326;18.772;2023-04-28T23:14:54;98271.42;;;12.03;42.33
56825;BME280;42705;50.326;18.772;2023-04-28T23:20:16;98264.72;;;12.00;42.04
56825;BME280;42705;50.326;18.772;2023-04-28T23:25:39;98267.13;;;11.98;42.09
56825;BME280;42705;50.326;18.772;2023-04-28T23:31:01;98261.21;;;11.96;42.23
56825;BME280;42705;50.326;18.772;2023-04-28T23:36:22;98251.83;;;11.94;42.15
56825;BME280;42705;50.326;18.772;2023-04-28T23:41:44;98249.02;;;11.92;42.19
56825;BME280;42705;50.326;18.772;2023-04-28T23:47:06;98239.83;;;11.90;42.02
56825;BME280;42705;50.326;18.772;2023-04-28T23:52:28;98235.02;;;11.85;41.78
56825;BME280;42705;50.326;18.772;2023-04-28T23:57:49;98231.09;;;11.82;41.68
